sensor_id;sensor_type;location;lat;lon;timestamp;P1;durP1;ratioP1;P2;durP2;ratioP2
41275;SDS011;27010;47.718;12.912;2023-09-12T00:02:28;9.15;;;8.27;;
41275;SDS011;27010;47.718;12.912;2023-09-12T00:05:35;8.77;;;7.88;;
41275;SDS011;27010;47.718;12.912;2023-09-12T00:08:37;9.18;;;7.60;;
41275;SDS011;27010;47.718;12.912;2023-09-12T00:11:40;8.80;;;7.60;;
41275;SDS011;27010;47.718;12.912;2023-09-12T00:14:42;10.57;;;8.38;;
41275;SDS011;27010;47.718;12.912;2023-09-12T00:17:44;9.20;;;7.82;;
41275;SDS011;27010;47.718;12.912;2023-09-12T00:20:46;9.88;;;7.95;;
41275;SDS011;27010;47.718;12.912;2023-09-12T00:23:49;8.43;;;7.63;;
41275;SDS011;27010;47.718;12.912;2023-09-12T00:26:51;9.57;;;8.30;;
41275;SDS011;27010;47.718;12.912;2023-09-12T00:29:53;9.85;;;8.32;;
41275;SDS011;27010;47.718;12.912;2023-09-12T00:32:56;10.90;;;7.82;;
41275;SDS011;27010;47.718;12.912;2023-09-12T00:35:58;9.65;;;8.45;;
41275;SDS011;27010;47.718;12.912;2023-09-12T00:39:00;9.00;;;7.78;;
41275;SDS011;27010;47.718;12.912;2023-09-12T00:42:02;9.23;;;8.32;;
41275;SDS011;27010;47.718;12.912;2023-09-12T00:45:06;10.82;;;8.27;;
41275;SDS011;27010;47.718;12.912;2023-09-12T00:48:09;9.27;;;8.13;;
41275;SDS011;27010;47.718;12.912;2023-09-12T00:51:13;9.52;;;8.57;;
41275;SDS011;27010;47.718;12.912;2023-09-12T00:54:16;9.75;;;8.80;;
41275;SDS011;27010;47.718;12.912;2023-09-12T00:57:18;9.88;;;8.30;;
41275;SDS011;27010;47.718;12.912;2023-09-12T01:00:21;9.38;;;7.78;;
41275;SDS011;27010;47.718;12.912;2023-09-12T01:03:24;10.95;;;8.50;;
41275;SDS011;27010;47.718;12.912;2023-09-12T01:06:27;8.32;;;7.38;;
41275;SDS011;27010;47.718;12.912;2023-09-12T01:09:31;9.70;;;8.55;;
41275;SDS011;27010;47.718;12.912;2023-09-12T01:12:34;9.25;;;7.90;;
41275;SDS011;27010;47.718;12.912;2023-09-12T01:15:38;9.55;;;8.48;;
41275;SDS011;27010;47.718;12.912;2023-09-12T01:18:40;10.60;;;9.57;;
41275;SDS011;27010;47.718;12.912;2023-09-12T01:28:23;11.27;;;8.60;;
41275;SDS011;27010;47.718;12.912;2023-09-12T01:31:29;9.73;;;8.67;;
41275;SDS011;27010;47.718;12.912;2023-09-12T01:34:31;10.53;;;9.43;;
41275;SDS011;27010;47.718;12.912;2023-09-12T01:37:33;10.13;;;8.50;;
41275;SDS011;27010;47.718;12.912;2023-09-12T01:40:39;10.57;;;8.48;;
41275;SDS011;27010;47.718;12.912;2023-09-12T01:43:51;12.40;;;8.25;;
41275;SDS011;27010;47.718;12.912;2023-09-12T01:46:54;9.68;;;8.05;;
41275;SDS011;27010;47.718;12.912;2023-09-12T01:49:56;10.20;;;8.15;;
41275;SDS011;27010;47.718;12.912;2023-09-12T01:52:59;10.40;;;7.97;;
41275;SDS011;27010;47.718;12.912;2023-09-12T01:56:01;11.03;;;8.60;;
41275;SDS011;27010;47.718;12.912;2023-09-12T01:59:04;9.83;;;8.93;;
41275;SDS011;27010;47.718;12.912;2023-09-12T02:02:06;9.17;;;8.13;;
41275;SDS011;27010;47.718;12.912;2023-09-12T02:05:10;9.75;;;8.70;;
41275;SDS011;27010;47.718;12.912;2023-09-12T02:08:17;9.98;;;8.98;;
41275;SDS011;27010;47.718;12.912;2023-09-12T02:11:19;9.05;;;8.15;;
41275;SDS011;27010;47.718;12.912;2023-09-12T02:14:21;9.47;;;8.20;;
41275;SDS011;27010;47.718;12.912;2023-09-12T02:17:23;11.43;;;8.60;;
41275;SDS011;27010;47.718;12.912;2023-09-12T02:20:25;11.95;;;9.35;;
41275;SDS011;27010;47.718;12.912;2023-09-12T02:23:27;12.02;;;9.35;;
41275;SDS011;27010;47.718;12.912;2023-09-12T02:26:29;9.87;;;8.97;;
41275;SDS011;27010;47.718;12.912;2023-09-12T02:29:31;10.73;;;8.70;;
41275;SDS011;27010;47.718;12.912;2023-09-12T02:32:36;9.60;;;8.32;;
41275;SDS011;27010;47.718;12.912;2023-09-12T02:35:39;9.80;;;8.52;;
41275;SDS011;27010;47.718;12.912;2023-09-12T02:38:41;10.43;;;9.23;;
41275;SDS011;27010;47.718;12.912;2023-09-12T02:41:43;9.48;;;8.45;;
41275;SDS011;27010;47.718;12.912;2023-09-12T02:44:45;10.55;;;8.23;;
41275;SDS011;27010;47.718;12.912;2023-09-12T02:47:47;9.20;;;8.20;;
41275;SDS011;27010;47.718;12.912;2023-09-12T02:50:50;9.67;;;8.67;;
41275;SDS011;27010;47.718;12.912;2023-09-12T02:53:52;11.37;;;8.87;;
41275;SDS011;27010;47.718;12.912;2023-09-12T02:56:54;12.07;;;8.30;;
41275;SDS011;27010;47.718;12.912;2023-09-12T02:59:56;10.27;;;9.27;;
41275;SDS011;27010;47.718;12.912;2023-09-12T03:02:58;11.10;;;8.27;;
41275;SDS011;27010;47.718;12.912;2023-09-12T03:06:00;10.07;;;9.07;;
41275;SDS011;27010;47.718;12.912;2023-09-12T03:09:04;9.73;;;8.47;;
41275;SDS011;27010;47.718;12.912;2023-09-12T03:12:08;9.77;;;8.80;;
41275;SDS011;27010;47.718;12.912;2023-09-12T03:15:10;10.37;;;9.10;;
41275;SDS011;27010;47.718;12.912;2023-09-12T03:18:13;12.67;;;9.43;;
41275;SDS011;27010;47.718;12.912;2023-09-12T03:21:15;10.47;;;9.00;;
41275;SDS011;27010;47.718;12.912;2023-09-12T03:24:17;12.13;;;8.43;;
41275;SDS011;27010;47.718;12.912;2023-09-12T03:27:20;9.50;;;8.53;;
41275;SDS011;27010;47.718;12.912;2023-09-12T03:30:22;11.30;;;8.57;;
41275;SDS011;27010;47.718;12.912;2023-09-12T03:33:24;9.43;;;8.43;;
41275;SDS011;27010;47.718;12.912;2023-09-12T03:36:26;9.40;;;8.50;;
41275;SDS011;27010;47.718;12.912;2023-09-12T03:39:29;10.77;;;9.30;;
41275;SDS011;27010;47.718;12.912;2023-09-12T03:42:31;13.40;;;9.10;;
41275;SDS011;27010;47.718;12.912;2023-09-12T03:45:42;9.87;;;8.97;;
41275;SDS011;27010;47.718;12.912;2023-09-12T03:48:45;10.13;;;9.03;;
41275;SDS011;27010;47.718;12.912;2023-09-12T03:51:47;9.80;;;8.63;;
41275;SDS011;27010;47.718;12.912;2023-09-12T03:54:50;9.10;;;8.20;;
41275;SDS011;27010;47.718;12.912;2023-09-12T03:57:52;9.57;;;8.40;;
41275;SDS011;27010;47.718;12.912;2023-09-12T04:00:55;10.10;;;8.87;;
41275;SDS011;27010;47.718;12.912;2023-09-12T04:03:57;9.57;;;8.67;;
41275;SDS011;27010;47.718;12.912;2023-09-12T04:07:03;10.23;;;8.53;;
41275;SDS011;27010;47.718;12.912;2023-09-12T04:10:07;10.00;;;8.73;;
41275;SDS011;27010;47.718;12.912;2023-09-12T04:13:10;10.43;;;9.33;;
41275;SDS011;27010;47.718;12.912;2023-09-12T04:16:12;10.30;;;9.20;;
41275;SDS011;27010;47.718;12.912;2023-09-12T04:19:14;13.17;;;9.43;;
41275;SDS011;27010;47.718;12.912;2023-09-12T04:22:16;10.63;;;9.63;;
41275;SDS011;27010;47.718;12.912;2023-09-12T04:25:20;10.80;;;9.70;;
41275;SDS011;27010;47.718;12.912;2023-09-12T04:28:22;9.80;;;8.80;;
41275;SDS011;27010;47.718;12.912;2023-09-12T04:31:24;11.70;;;9.17;;
41275;SDS011;27010;47.718;12.912;2023-09-12T04:34:26;9.07;;;8.17;;
41275;SDS011;27010;47.718;12.912;2023-09-12T04:37:28;9.53;;;8.53;;
41275;SDS011;27010;47.718;12.912;2023-09-12T04:40:30;9.77;;;8.77;;
41275;SDS011;27010;47.718;12.912;2023-09-12T04:43:33;10.53;;;9.43;;
41275;SDS011;27010;47.718;12.912;2023-09-12T04:46:35;9.70;;;8.70;;
41275;SDS011;27010;47.718;12.912;2023-09-12T04:49:38;10.47;;;9.43;;
41275;SDS011;27010;47.718;12.912;2023-09-12T04:52:41;9.90;;;8.90;;
41275;SDS011;27010;47.718;12.912;2023-09-12T04:55:43;9.30;;;8.40;;
41275;SDS011;27010;47.718;12.912;2023-09-12T04:58:45;10.00;;;9.00;;
41275;SDS011;27010;47.718;12.912;2023-09-12T05:01:47;13.43;;;8.40;;
41275;SDS011;27010;47.718;12.912;2023-09-12T05:04:49;9.93;;;8.93;;
41275;SDS011;27010;47.718;12.912;2023-09-12T05:07:51;12.20;;;9.13;;
41275;SDS011;27010;47.718;12.912;2023-09-12T05:10:54;9.37;;;8.17;;
41275;SDS011;27010;47.718;12.912;2023-09-12T05:13:56;11.10;;;9.83;;
41275;SDS011;27010;47.718;12.912;2023-09-12T05:16:59;11.23;;;9.20;;
41275;SDS011;27010;47.718;12.912;2023-09-12T05:20:01;9.53;;;8.53;;
41275;SDS011;27010;47.718;12.912;2023-09-12T05:23:08;9.73;;;8.73;;
41275;SDS011;27010;47.718;12.912;2023-09-12T05:26:10;9.73;;;8.50;;
41275;SDS011;27010;47.718;12.912;2023-09-12T05:29:12;12.77;;;9.47;;
41275;SDS011;27010;47.718;12.912;2023-09-12T05:32:14;11.70;;;8.87;;
41275;SDS011;27010;47.718;12.912;2023-09-12T05:35:18;9.67;;;8.47;;
41275;SDS011;27010;47.718;12.912;2023-09-12T05:38:23;13.00;;;8.87;;
41275;SDS011;27010;47.718;12.912;2023-09-12T05:41:25;9.87;;;8.60;;
41275;SDS011;27010;47.718;12.912;2023-09-12T05:44:27;10.27;;;8.57;;
41275;SDS011;27010;47.718;12.912;2023-09-12T05:47:29;12.57;;;9.17;;
41275;SDS011;27010;47.718;12.912;2023-09-12T05:50:31;10.50;;;9.40;;
41275;SDS011;27010;47.718;12.912;2023-09-12T05:53:33;10.47;;;9.47;;
41275;SDS011;27010;47.718;12.912;2023-09-12T05:56:35;11.80;;;9.70;;
41275;SDS011;27010;47.718;12.912;2023-09-12T05:59:37;11.57;;;9.07;;
41275;SDS011;27010;47.718;12.912;2023-09-12T06:02:42;8.90;;;8.00;;
41275;SDS011;27010;47.718;12.912;2023-09-12T06:05:44;11.23;;;9.05;;
41275;SDS011;27010;47.718;12.912;2023-09-12T06:08:46;11.02;;;8.50;;
41275;SDS011;27010;47.718;12.912;2023-09-12T06:11:48;10.00;;;8.85;;
41275;SDS011;27010;47.718;12.912;2023-09-12T06:14:50;12.07;;;8.93;;
41275;SDS011;27010;47.718;12.912;2023-09-12T06:17:55;9.95;;;9.00;;
41275;SDS011;27010;47.718;12.912;2023-09-12T06:21:00;11.27;;;8.30;;
41275;SDS011;27010;47.718;12.912;2023-09-12T06:27:28;9.48;;;8.13;;
41275;SDS011;27010;47.718;12.912;2023-09-12T06:30:32;11.40;;;8.90;;
41275;SDS011;27010;47.718;12.912;2023-09-12T06:33:34;9.93;;;8.45;;
41275;SDS011;27010;47.718;12.912;2023-09-12T15:24:26;8.23;;;7.43;;
41275;SDS011;27010;47.718;12.912;2023-09-12T15:27:28;13.20;;;8.52;;
41275;SDS011;27010;47.718;12.912;2023-09-12T15:30:30;10.35;;;8.02;;
41275;SDS011;27010;47.718;12.912;2023-09-12T15:33:33;12.23;;;7.68;;
41275;SDS011;27010;47.718;12.912;2023-09-12T15:36:43;8.32;;;7.10;;
41275;SDS011;27010;47.718;12.912;2023-09-12T15:39:46;8.00;;;7.20;;
41275;SDS011;27010;47.718;12.912;2023-09-12T15:42:48;9.55;;;7.68;;
41275;SDS011;27010;47.718;12.912;2023-09-12T15:45:50;13.48;;;8.10;;
41275;SDS011;27010;47.718;12.912;2023-09-12T15:48:52;8.57;;;7.75;;
41275;SDS011;27010;47.718;12.912;2023-09-12T15:51:56;10.73;;;8.13;;
41275;SDS011;27010;47.718;12.912;2023-09-12T15:54:59;8.93;;;7.88;;
41275;SDS011;27010;47.718;12.912;2023-09-12T15:58:01;7.93;;;7.22;;
41275;SDS011;27010;47.718;12.912;2023-09-12T16:01:03;10.40;;;7.45;;
41275;SDS011;27010;47.718;12.912;2023-09-12T16:04:06;9.80;;;8.10;;
41275;SDS011;27010;47.718;12.912;2023-09-12T16:07:08;10.32;;;8.27;;
41275;SDS011;27010;47.718;12.912;2023-09-12T16:10:10;10.75;;;7.63;;
41275;SDS011;27010;47.718;12.912;2023-09-12T16:13:14;8.65;;;7.75;;
41275;SDS011;27010;47.718;12.912;2023-09-12T16:16:16;9.43;;;8.52;;
41275;SDS011;27010;47.718;12.912;2023-09-12T16:19:18;9.20;;;8.15;;
41275;SDS011;27010;47.718;12.912;2023-09-12T16:22:20;11.30;;;9.63;;
41275;SDS011;27010;47.718;12.912;2023-09-12T16:25:23;11.55;;;8.35;;
41275;SDS011;27010;47.718;12.912;2023-09-12T16:28:25;11.88;;;8.52;;
41275;SDS011;27010;47.718;12.912;2023-09-12T16:31:27;13.73;;;10.25;;
41275;SDS011;27010;47.718;12.912;2023-09-12T16:34:29;14.52;;;9.77;;
41275;SDS011;27010;47.718;12.912;2023-09-12T16:37:32;9.13;;;7.95;;
41275;SDS011;27010;47.718;12.912;2023-09-12T16:40:36;9.02;;;8.10;;
41275;SDS011;27010;47.718;12.912;2023-09-12T16:43:40;12.73;;;8.90;;
41275;SDS011;27010;47.718;12.912;2023-09-12T16:46:43;12.85;;;8.73;;
41275;SDS011;27010;47.718;12.912;2023-09-12T16:49:45;13.35;;;8.13;;
41275;SDS011;27010;47.718;12.912;2023-09-12T16:52:47;9.10;;;7.95;;
41275;SDS011;27010;47.718;12.912;2023-09-12T16:55:50;10.32;;;8.05;;
41275;SDS011;27010;47.718;12.912;2023-09-12T16:58:53;10.00;;;8.95;;
41275;SDS011;27010;47.718;12.912;2023-09-12T17:01:55;9.82;;;8.80;;
41275;SDS011;27010;47.718;12.912;2023-09-12T17:04:58;10.57;;;9.18;;
41275;SDS011;27010;47.718;12.912;2023-09-12T17:08:00;9.18;;;8.27;;
41275;SDS011;27010;47.718;12.912;2023-09-12T17:11:02;9.45;;;7.90;;
41275;SDS011;27010;47.718;12.912;2023-09-12T17:14:07;10.52;;;9.43;;
41275;SDS011;27010;47.718;12.912;2023-09-12T17:17:10;10.13;;;8.90;;
41275;SDS011;27010;47.718;12.912;2023-09-12T17:20:12;9.68;;;8.68;;
41275;SDS011;27010;47.718;12.912;2023-09-12T17:23:16;12.43;;;8.95;;
41275;SDS011;27010;47.718;12.912;2023-09-12T17:26:18;13.55;;;9.98;;
41275;SDS011;27010;47.718;12.912;2023-09-12T17:29:20;13.60;;;9.73;;
41275;SDS011;27010;47.718;12.912;2023-09-12T17:32:24;13.18;;;9.60;;
41275;SDS011;27010;47.718;12.912;2023-09-12T17:35:29;14.30;;;9.38;;
41275;SDS011;27010;47.718;12.912;2023-09-12T17:38:30;12.38;;;8.70;;
41275;SDS011;27010;47.718;12.912;2023-09-12T17:41:33;11.27;;;8.77;;
41275;SDS011;27010;47.718;12.912;2023-09-12T17:44:35;8.95;;;8.05;;
41275;SDS011;27010;47.718;12.912;2023-09-12T17:47:37;10.07;;;8.52;;
41275;SDS011;27010;47.718;12.912;2023-09-12T17:50:39;10.55;;;8.95;;
41275;SDS011;27010;47.718;12.912;2023-09-12T17:53:41;9.40;;;8.50;;
41275;SDS011;27010;47.718;12.912;2023-09-12T17:56:44;9.45;;;8.45;;
41275;SDS011;27010;47.718;12.912;2023-09-12T17:59:46;10.38;;;9.38;;
41275;SDS011;27010;47.718;12.912;2023-09-12T18:02:50;10.77;;;8.48;;
41275;SDS011;27010;47.718;12.912;2023-09-12T18:05:52;22.27;;;9.38;;
41275;SDS011;27010;47.718;12.912;2023-09-12T18:08:54;10.27;;;9.27;;
41275;SDS011;27010;47.718;12.912;2023-09-12T18:11:56;11.82;;;8.43;;
41275;SDS011;27010;47.718;12.912;2023-09-12T18:14:59;9.48;;;8.45;;
41275;SDS011;27010;47.718;12.912;2023-09-12T18:18:01;9.52;;;8.57;;
41275;SDS011;27010;47.718;12.912;2023-09-12T18:21:04;11.45;;;9.05;;
41275;SDS011;27010;47.718;12.912;2023-09-12T18:24:07;10.75;;;8.80;;
41275;SDS011;27010;47.718;12.912;2023-09-12T18:27:09;10.15;;;8.75;;
41275;SDS011;27010;47.718;12.912;2023-09-12T18:30:11;9.73;;;8.73;;
41275;SDS011;27010;47.718;12.912;2023-09-12T18:33:14;12.43;;;9.25;;
41275;SDS011;27010;47.718;12.912;2023-09-12T18:36:17;11.30;;;9.27;;
41275;SDS011;27010;47.718;12.912;2023-09-12T18:39:19;9.63;;;8.65;;
41275;SDS011;27010;47.718;12.912;2023-09-12T18:42:22;9.10;;;8.20;;
41275;SDS011;27010;47.718;12.912;2023-09-12T18:45:25;10.25;;;9.25;;
41275;SDS011;27010;47.718;12.912;2023-09-12T18:48:30;9.93;;;8.93;;
41275;SDS011;27010;47.718;12.912;2023-09-12T18:51:34;9.35;;;8.43;;
41275;SDS011;27010;47.718;12.912;2023-09-12T18:54:37;10.68;;;9.57;;
41275;SDS011;27010;47.718;12.912;2023-09-12T18:57:40;9.70;;;8.32;;
41275;SDS011;27010;47.718;12.912;2023-09-12T19:00:43;12.73;;;9.48;;
41275;SDS011;27010;47.718;12.912;2023-09-12T19:03:47;11.10;;;8.90;;
41275;SDS011;27010;47.718;12.912;2023-09-12T19:06:49;10.82;;;9.57;;
41275;SDS011;27010;47.718;12.912;2023-09-12T19:09:52;11.13;;;9.20;;
41275;SDS011;27010;47.718;12.912;2023-09-12T19:12:55;12.30;;;10.10;;
41275;SDS011;27010;47.718;12.912;2023-09-12T19:15:57;12.00;;;9.20;;
41275;SDS011;27010;47.718;12.912;2023-09-12T19:18:59;11.40;;;8.95;;
41275;SDS011;27010;47.718;12.912;2023-09-12T19:22:01;9.98;;;8.98;;
41275;SDS011;27010;47.718;12.912;2023-09-12T19:25:04;10.82;;;8.60;;
41275;SDS011;27010;47.718;12.912;2023-09-12T19:28:08;11.50;;;9.05;;
41275;SDS011;27010;47.718;12.912;2023-09-12T19:31:11;12.57;;;8.98;;
41275;SDS011;27010;47.718;12.912;2023-09-12T19:34:13;11.98;;;9.40;;
41275;SDS011;27010;47.718;12.912;2023-09-12T19:37:16;11.32;;;9.05;;
41275;SDS011;27010;47.718;12.912;2023-09-12T19:40:17;13.13;;;8.88;;
41275;SDS011;27010;47.718;12.912;2023-09-12T19:43:20;12.05;;;9.07;;
41275;SDS011;27010;47.718;12.912;2023-09-12T19:46:23;8.98;;;8.07;;
41275;SDS011;27010;47.718;12.912;2023-09-12T19:49:25;9.32;;;8.30;;
41275;SDS011;27010;47.718;12.912;2023-09-12T19:52:27;10.43;;;8.38;;
41275;SDS011;27010;47.718;12.912;2023-09-12T19:55:30;9.57;;;8.63;;
41275;SDS011;27010;47.718;12.912;2023-09-12T19:58:32;10.00;;;8.90;;
41275;SDS011;27010;47.718;12.912;2023-09-12T20:01:34;11.88;;;10.10;;
41275;SDS011;27010;47.718;12.912;2023-09-12T20:04:38;9.98;;;8.98;;
41275;SDS011;27010;47.718;12.912;2023-09-12T20:07:41;10.75;;;9.18;;
41275;SDS011;27010;47.718;12.912;2023-09-12T20:10:43;11.82;;;8.80;;
41275;SDS011;27010;47.718;12.912;2023-09-12T20:13:45;9.05;;;8.15;;
41275;SDS011;27010;47.718;12.912;2023-09-12T20:16:48;11.73;;;9.90;;
41275;SDS011;27010;47.718;12.912;2023-09-12T20:19:50;11.48;;;9.15;;
41275;SDS011;27010;47.718;12.912;2023-09-12T20:22:53;10.18;;;9.07;;
41275;SDS011;27010;47.718;12.912;2023-09-12T20:25:55;15.52;;;8.20;;
41275;SDS011;27010;47.718;12.912;2023-09-12T20:28:57;5.82;;;5.03;;
41275;SDS011;27010;47.718;12.912;2023-09-12T20:32:00;6.45;;;5.13;;
41275;SDS011;27010;47.718;12.912;2023-09-12T20:35:06;7.40;;;4.25;;
41275;SDS011;27010;47.718;12.912;2023-09-12T20:38:08;5.22;;;4.10;;
41275;SDS011;27010;47.718;12.912;2023-09-12T20:41:10;5.85;;;4.15;;
41275;SDS011;27010;47.718;12.912;2023-09-12T20:44:13;5.10;;;3.25;;
41275;SDS011;27010;47.718;12.912;2023-09-12T20:47:16;5.55;;;3.40;;
41275;SDS011;27010;47.718;12.912;2023-09-12T20:50:21;7.68;;;3.13;;
41275;SDS011;27010;47.718;12.912;2023-09-12T20:53:31;5.95;;;3.13;;
41275;SDS011;27010;47.718;12.912;2023-09-12T20:56:37;4.90;;;2.92;;
41275;SDS011;27010;47.718;12.912;2023-09-12T20:59:43;4.38;;;2.55;;
41275;SDS011;27010;47.718;12.912;2023-09-12T21:02:45;6.32;;;2.70;;
41275;SDS011;27010;47.718;12.912;2023-09-12T21:05:47;9.95;;;2.65;;
41275;SDS011;27010;47.718;12.912;2023-09-12T21:08:49;3.95;;;2.58;;
41275;SDS011;27010;47.718;12.912;2023-09-12T21:11:52;2.25;;;2.05;;
41275;SDS011;27010;47.718;12.912;2023-09-12T21:14:54;4.43;;;2.42;;
41275;SDS011;27010;47.718;12.912;2023-09-12T21:17:57;6.13;;;1.92;;
41275;SDS011;27010;47.718;12.912;2023-09-12T21:20:59;4.18;;;1.70;;
41275;SDS011;27010;47.718;12.912;2023-09-12T21:24:01;2.10;;;1.50;;
41275;SDS011;27010;47.718;12.912;2023-09-12T21:27:03;2.55;;;1.63;;
41275;SDS011;27010;47.718;12.912;2023-09-12T21:30:06;2.90;;;1.55;;
41275;SDS011;27010;47.718;12.912;2023-09-12T21:33:08;5.05;;;1.70;;
41275;SDS011;27010;47.718;12.912;2023-09-12T21:36:12;2.05;;;1.73;;
41275;SDS011;27010;47.718;12.912;2023-09-12T21:39:14;1.60;;;1.20;;
41275;SDS011;27010;47.718;12.912;2023-09-12T21:42:16;3.35;;;1.60;;
41275;SDS011;27010;47.718;12.912;2023-09-12T21:45:20;3.40;;;2.20;;
41275;SDS011;27010;47.718;12.912;2023-09-12T21:48:22;2.08;;;1.35;;
41275;SDS011;27010;47.718;12.912;2023-09-12T21:51:25;2.83;;;1.50;;
41275;SDS011;27010;47.718;12.912;2023-09-12T21:54:27;1.83;;;1.50;;
41275;SDS011;27010;47.718;12.912;2023-09-12T21:57:31;4.93;;;1.50;;
41275;SDS011;27010;47.718;12.912;2023-09-12T22:00:34;3.33;;;1.13;;
41275;SDS011;27010;47.718;12.912;2023-09-12T22:03:37;4.05;;;1.58;;
41275;SDS011;27010;47.718;12.912;2023-09-12T22:06:40;3.80;;;1.60;;
41275;SDS011;27010;47.718;12.912;2023-09-12T22:09:42;5.45;;;1.88;;
41275;SDS011;27010;47.718;12.912;2023-09-12T22:12:47;2.13;;;1.27;;
41275;SDS011;27010;47.718;12.912;2023-09-12T22:15:50;2.83;;;1.40;;
41275;SDS011;27010;47.718;12.912;2023-09-12T22:18:53;2.08;;;1.40;;
41275;SDS011;27010;47.718;12.912;2023-09-12T22:21:56;3.47;;;1.30;;
41275;SDS011;27010;47.718;12.912;2023-09-12T22:24:58;4.28;;;1.70;;
41275;SDS011;27010;47.718;12.912;2023-09-12T22:28:02;3.20;;;1.83;;
41275;SDS011;27010;47.718;12.912;2023-09-12T22:31:09;4.78;;;2.20;;
41275;SDS011;27010;47.718;12.912;2023-09-12T22:34:13;5.43;;;1.80;;
41275;SDS011;27010;47.718;12.912;2023-09-12T22:37:15;3.50;;;1.60;;
41275;SDS011;27010;47.718;12.912;2023-09-12T22:40:17;6.38;;;1.80;;
41275;SDS011;27010;47.718;12.912;2023-09-12T22:43:19;2.53;;;1.60;;
41275;SDS011;27010;47.718;12.912;2023-09-12T22:46:21;6.25;;;1.83;;
41275;SDS011;27010;47.718;12.912;2023-09-12T22:49:23;2.38;;;1.63;;
41275;SDS011;27010;47.718;12.912;2023-09-12T22:52:25;3.10;;;1.45;;
41275;SDS011;27010;47.718;12.912;2023-09-12T22:55:28;2.22;;;1.50;;
41275;SDS011;27010;47.718;12.912;2023-09-12T22:58:30;2.53;;;1.60;;
41275;SDS011;27010;47.718;12.912;2023-09-12T23:01:33;1.75;;;1.42;;
41275;SDS011;27010;47.718;12.912;2023-09-12T23:04:36;2.22;;;1.60;;
41275;SDS011;27010;47.718;12.912;2023-09-12T23:07:38;2.30;;;1.63;;
41275;SDS011;27010;47.718;12.912;2023-09-12T23:10:40;3.90;;;1.70;;
41275;SDS011;27010;47.718;12.912;2023-09-12T23:13:43;1.85;;;1.67;;
41275;SDS011;27010;47.718;12.912;2023-09-12T23:16:45;6.07;;;2.00;;
41275;SDS011;27010;47.718;12.912;2023-09-12T23:19:47;1.77;;;1.40;;
41275;SDS011;27010;47.718;12.912;2023-09-12T23:22:49;5.75;;;1.70;;
41275;SDS011;27010;47.718;12.912;2023-09-12T23:25:52;2.40;;;1.40;;
41275;SDS011;27010;47.718;12.912;2023-09-12T23:28:54;4.32;;;1.83;;
41275;SDS011;27010;47.718;12.912;2023-09-12T23:31:57;4.80;;;1.40;;
41275;SDS011;27010;47.718;12.912;2023-09-12T23:34:59;3.50;;;1.63;;
41275;SDS011;27010;47.718;12.912;2023-09-12T23:38:01;3.55;;;1.63;;
41275;SDS011;27010;47.718;12.912;2023-09-12T23:41:03;3.70;;;1.85;;
41275;SDS011;27010;47.718;12.912;2023-09-12T23:44:05;3.50;;;1.75;;
41275;SDS011;27010;47.718;12.912;2023-09-12T23:47:07;3.15;;;1.90;;
41275;SDS011;27010;47.718;12.912;2023-09-12T23:50:09;2.75;;;1.50;;
41275;SDS011;27010;47.718;12.912;2023-09-12T23:53:11;2.90;;;1.45;;
41275;SDS011;27010;47.718;12.912;2023-09-12T23:56:13;6.30;;;1.40;;
41275;SDS011;27010;47.718;12.912;2023-09-12T23:59:15;2.47;;;1.73;;
